Time;durP1;ratioP1;P1;durP2;ratioP2;P2;SDS_P1;SDS_P2;PMS_P1;PMS_P2;Temp;Humidity;BMP_temperature;BMP_pressure;BME280_temperature;BME280_humidity;BME280_pressure;Samples;Min_cycle;Max_cycle;Signal;HPM_P1;HPM_P2
2023/02/06 00:01:02;;;;;;;;;;;;;;;-3.78;80.33;103289.70;105166;1291;71331;-81
2023/02/06 00:03:49;;;;;;;;;;;;;;;-3.77;80.28;103287.63;105097;1292;58348;-81
2023/02/06 00:06:35;;;;;;;;;;;;;;;-3.76;80.40;103283.30;105233;1292;59260;-81
2023/02/06 00:09:21;;;;;;;;;;;;;;;-3.72;80.34;103280.94;105276;1291;73213;-81
2023/02/06 00:12:07;;;;;;;;;;;;;;;-3.69;80.37;103284.23;105253;1291;68143;-81
2023/02/06 00:14:54;;;;;;;;;;;;;;;-3.67;80.32;103281.70;105229;1291;71267;-81
2023/02/06 00:17:40;;;;;;;;;;;;;;;-3.66;80.39;103282.64;105290;1296;60490;-81
2023/02/06 00:20:26;;;;;;;;;;;;;;;-3.61;80.41;103284.66;105134;1291;60575;-81
2023/02/06 00:23:12;;;;;;;;;;;;;;;-3.58;80.33;103274.30;105184;1291;72816;-81
2023/02/06 00:25:58;;;;;;;;;;;;;;;-3.57;80.33;103266.34;105246;1294;69145;-81
2023/02/06 00:28:45;;;;;;;;;;;;;;;-3.56;80.31;103271.33;105211;1291;72307;-81
2023/02/06 00:31:31;;;;;;;;;;;;;;;-3.54;80.40;103284.58;105005;1291;59693;-81
2023/02/06 00:34:17;;;;;;;;;;;;;;;-3.54;80.44;103277.89;105216;1291;62642;-81
2023/02/06 00:37:03;;;;;;;;;;;;;;;-3.52;80.42;103283.14;105264;1294;73584;-81
2023/02/06 00:39:49;;;;;;;;;;;;;;;-3.51;80.42;103291.31;105261;1294;68518;-81
2023/02/06 00:42:35;;;;;;;;;;;;;;;-3.48;80.44;103293.08;105127;1291;70182;-81
2023/02/06 00:45:21;;;;;;;;;;;;;;;-3.45;80.48;103295.88;105232;1295;60486;-81
2023/02/06 00:48:15;;;;;;;;;;;;;;;-3.40;80.54;103294.08;105262;1294;59910;-81
2023/02/06 00:51:01;;;;;;;;;;;;;;;-3.36;80.48;103285.83;105140;1293;73588;-81
2023/02/06 00:53:47;;;;;;;;;;;;;;;-3.35;80.52;103280.87;105113;1291;70338;-81
2023/02/06 00:56:33;;;;;;;;;;;;;;;-3.32;80.61;103268.27;105096;1291;71224;-81
2023/02/06 00:59:19;;;;;;;;;;;;;;;-3.30;80.53;103268.58;105015;1297;59569;-81
2023/02/06 01:02:06;;;;;;;;;;;;;;;-3.31;80.47;103273.26;105172;1292;59122;-81
2023/02/06 01:04:52;;;;;;;;;;;;;;;-3.31;80.45;103268.84;105260;1292;73190;-81
2023/02/06 01:07:38;;;;;;;;;;;;;;;-3.30;80.48;103271.62;105324;1291;67881;-81
2023/02/06 01:10:25;;;;;;;;;;;;;;;-3.29;80.47;103275.08;105271;1290;71083;-82
2023/02/06 01:13:11;;;;;;;;;;;;;;;-3.28;80.49;103281.02;105146;1293;60467;-81
2023/02/06 01:15:57;;;;;;;;;;;;;;;-3.26;80.58;103282.21;105180;1291;60276;-81
2023/02/06 01:18:43;;;;;;;;;;;;;;;-3.23;80.65;103280.65;105122;1291;72484;-81
2023/02/06 01:21:29;;;;;;;;;;;;;;;-3.20;80.58;103275.30;105277;1292;68896;-81
2023/02/06 01:24:15;;;;;;;;;;;;;;;-3.19;80.64;103276.55;105273;1290;71621;-81
2023/02/06 01:27:01;;;;;;;;;;;;;;;-3.19;80.57;103279.30;105183;1290;60239;-81
2023/02/06 01:29:47;;;;;;;;;;;;;;;-3.18;80.63;103278.85;105162;1294;60409;-81
2023/02/06 01:32:37;;;;;;;;;;;;;;;-3.16;80.61;103290.83;105022;1292;73505;-81
2023/02/06 01:35:24;;;;;;;;;;;;;;;-3.13;80.60;103287.02;105155;1292;67909;-81
2023/02/06 01:38:10;;;;;;;;;;;;;;;-3.12;80.58;103277.84;105231;1297;72416;-81
2023/02/06 01:40:56;;;;;;;;;;;;;;;-3.11;80.71;103275.23;105098;1291;59415;-81
2023/02/06 01:43:44;;;;;;;;;;;;;;;-3.12;80.69;103267.56;105016;1298;59755;-81
2023/02/06 01:46:30;;;;;;;;;;;;;;;-3.14;80.68;103259.44;105069;1297;72565;-81
2023/02/06 01:49:26;;;;;;;;;;;;;;;-3.17;80.70;103255.48;105072;1296;67447;-81
2023/02/06 01:52:35;;;;;;;;;;;;;;;-3.14;80.80;103249.48;105244;1293;72080;-81
2023/02/06 01:55:21;;;;;;;;;;;;;;;-3.11;80.74;103247.19;104545;1299;60382;-81
2023/02/06 01:58:10;;;;;;;;;;;;;;;-3.11;80.76;103247.19;104497;1299;62863;-81
2023/02/06 02:00:57;;;;;;;;;;;;;;;-3.09;80.74;103247.03;104524;1300;72586;-81
2023/02/06 02:03:45;;;;;;;;;;;;;;;-3.07;80.77;103242.48;104418;1307;67326;-81
2023/02/06 02:06:32;;;;;;;;;;;;;;;-3.03;80.79;103239.55;104565;1299;72173;-81
2023/02/06 02:09:18;;;;;;;;;;;;;;;-3.02;80.73;103233.23;104551;1305;60360;-81
2023/02/06 02:12:05;;;;;;;;;;;;;;;-3.04;80.75;103228.04;104557;1300;62917;-81
2023/02/06 02:14:52;;;;;;;;;;;;;;;-3.07;80.70;103226.94;104510;1302;72981;-81
2023/02/06 02:17:51;;;;;;;;;;;;;;;-3.09;80.76;103218.17;104577;1299;67137;-81
2023/02/06 02:20:37;;;;;;;;;;;;;;;-3.06;80.77;103217.36;104510;1303;72361;-82
2023/02/06 02:23:23;;;;;;;;;;;;;;;-3.05;80.81;103208.05;104585;1302;60412;-81
2023/02/06 02:26:27;;;;;;;;;;;;;;;-3.03;80.84;103202.78;104573;1299;60320;-81
2023/02/06 02:29:26;;;;;;;;;;;;;;;-3.02;80.87;103195.16;104541;1301;72590;-81
2023/02/06 02:32:24;;;;;;;;;;;;;;;-2.97;80.90;103194.12;104769;1297;67323;-81
2023/02/06 02:35:18;;;;;;;;;;;;;;;-2.95;80.87;103190.63;105121;1295;71408;-81
2023/02/06 02:38:07;;;;;;;;;;;;;;;-2.94;80.90;103195.09;105249;1291;60256;-81
2023/02/06 02:41:03;;;;;;;;;;;;;;;-2.93;80.96;103192.84;105248;1292;59585;-81
2023/02/06 02:43:53;;;;;;;;;;;;;;;-2.93;80.89;103187.39;105223;1292;72312;-81
2023/02/06 02:46:41;;;;;;;;;;;;;;;-2.90;80.88;103185.77;105228;1292;68063;-81
2023/02/06 02:49:30;;;;;;;;;;;;;;;-2.88;80.90;103180.55;105128;1291;76584;-81
2023/02/06 02:52:17;;;;;;;;;;;;;;;-2.86;80.92;103184.57;104984;1296;292277;-81
2023/02/06 02:55:18;;;;;;;;;;;;;;;-2.86;80.91;103181.35;105253;1291;61066;-82
2023/02/06 02:58:06;;;;;;;;;;;;;;;-2.84;80.97;103181.04;105214;1293;73296;-81
2023/02/06 03:01:07;;;;;;;;;;;;;;;-2.85;80.96;103174.39;104942;1293;67670;-81
2023/02/06 03:03:55;;;;;;;;;;;;;;;-2.86;80.92;103168.77;105043;1295;71247;-81
2023/02/06 03:06:47;;;;;;;;;;;;;;;-2.85;80.91;103164.56;105015;1294;60904;-81
2023/02/06 03:09:53;;;;;;;;;;;;;;;-2.85;80.88;103163.60;105151;1295;60285;-81
2023/02/06 03:12:44;;;;;;;;;;;;;;;-2.82;80.89;103160.07;104708;1299;73196;-81
2023/02/06 03:15:42;;;;;;;;;;;;;;;-2.80;80.95;103158.95;104679;1299;68609;-81
2023/02/06 03:18:40;;;;;;;;;;;;;;;-2.78;80.93;103159.42;104634;1303;72061;-81
2023/02/06 03:21:26;;;;;;;;;;;;;;;-2.77;80.98;103160.20;104615;1303;59636;-82
2023/02/06 03:24:16;;;;;;;;;;;;;;;-2.76;80.94;103159.26;104612;1299;59344;-81
2023/02/06 03:27:04;;;;;;;;;;;;;;;-2.75;80.93;103155.23;104583;1298;72560;-81
2023/02/06 03:29:52;;;;;;;;;;;;;;;-2.76;80.94;103148.11;104622;1300;67323;-81
2023/02/06 03:32:44;;;;;;;;;;;;;;;-2.76;80.92;103150.80;104520;1299;73501;-81
2023/02/06 03:35:33;;;;;;;;;;;;;;;-2.77;80.93;103153.77;104451;1300;60462;-81
2023/02/06 03:38:19;;;;;;;;;;;;;;;-2.77;80.96;103163.41;104498;1297;60391;-81
2023/02/06 03:41:05;;;;;;;;;;;;;;;-2.75;80.96;103163.71;104660;1298;74372;-81
2023/02/06 03:43:53;;;;;;;;;;;;;;;-2.74;80.99;103163.77;104596;1299;67996;-81
2023/02/06 03:46:40;;;;;;;;;;;;;;;-2.75;80.99;103165.86;104620;1297;71242;-81
2023/02/06 03:49:28;;;;;;;;;;;;;;;-2.77;81.01;103168.13;104746;1291;60049;-81
2023/02/06 03:52:18;;;;;;;;;;;;;;;-2.77;81.02;103170.63;105023;1292;60722;-81
2023/02/06 03:55:08;;;;;;;;;;;;;;;-2.79;80.97;103167.45;105158;1292;72445;-81
2023/02/06 03:58:02;;;;;;;;;;;;;;;-2.78;81.07;103161.09;105151;1292;68546;-81
2023/02/06 04:00:49;;;;;;;;;;;;;;;-2.75;81.03;103170.10;105129;1294;71346;-81
2023/02/06 04:03:35;;;;;;;;;;;;;;;-2.74;81.04;103170.87;104848;1294;60543;-81
2023/02/06 04:06:21;;;;;;;;;;;;;;;-2.75;81.06;103174.52;105038;1292;60394;-81
2023/02/06 04:09:07;;;;;;;;;;;;;;;-2.76;81.07;103170.23;105098;1292;74656;-81
2023/02/06 04:11:53;;;;;;;;;;;;;;;-2.75;81.11;103175.33;104997;1293;67522;-82
2023/02/06 04:14:40;;;;;;;;;;;;;;;-2.76;81.06;103183.21;105082;1291;71161;-81
2023/02/06 04:17:27;;;;;;;;;;;;;;;-2.76;81.14;103184.35;105130;1293;60490;-81
2023/02/06 04:20:13;;;;;;;;;;;;;;;-2.76;81.13;103180.98;105098;1294;60088;-81
2023/02/06 04:23:02;;;;;;;;;;;;;;;-2.75;81.15;103174.66;105081;1292;72612;-81
2023/02/06 04:25:48;;;;;;;;;;;;;;;-2.74;81.11;103167.86;105216;1294;67266;-81
2023/02/06 04:28:34;;;;;;;;;;;;;;;-2.73;81.12;103158.61;105078;1292;72061;-81
2023/02/06 04:31:20;;;;;;;;;;;;;;;-2.71;81.18;103156.77;104946;1294;58845;-81
2023/02/06 04:34:06;;;;;;;;;;;;;;;-2.70;81.18;103163.30;105137;1292;60359;-81
2023/02/06 04:36:52;;;;;;;;;;;;;;;-2.67;81.27;103159.15;105026;1294;72465;-81
2023/02/06 04:39:38;;;;;;;;;;;;;;;-2.63;81.26;103154.50;105007;1291;69126;-81
2023/02/06 04:42:24;;;;;;;;;;;;;;;-2.61;81.23;103153.84;105118;1294;71305;-81
2023/02/06 04:45:11;;;;;;;;;;;;;;;-2.59;81.26;103160.54;105126;1292;60662;-81
2023/02/06 04:47:56;;;;;;;;;;;;;;;-2.58;81.20;103161.63;105010;1293;60466;-82
2023/02/06 04:50:42;;;;;;;;;;;;;;;-2.57;81.30;103159.63;105063;1292;72455;-81
2023/02/06 04:53:29;;;;;;;;;;;;;;;-2.57;81.18;103154.59;105111;1293;70067;-81
2023/02/06 04:56:15;;;;;;;;;;;;;;;-2.56;81.25;103155.52;105121;1291;71104;-81
2023/02/06 04:59:01;;;;;;;;;;;;;;;-2.55;81.28;103155.77;105122;1292;58884;-81
2023/02/06 05:01:48;;;;;;;;;;;;;;;-2.53;81.25;103150.85;105141;1291;59274;-82
2023/02/06 05:04:34;;;;;;;;;;;;;;;-2.53;81.19;103148.31;105127;1295;73060;-82
2023/02/06 05:07:20;;;;;;;;;;;;;;;-2.54;81.16;103144.88;105090;1297;67982;-81
2023/02/06 05:10:08;;;;;;;;;;;;;;;-2.54;81.17;103145.05;104963;1294;71882;-81
2023/02/06 05:12:55;;;;;;;;;;;;;;;-2.53;81.24;103148.64;105097;1295;60354;-81
2023/02/06 05:15:40;;;;;;;;;;;;;;;-2.54;81.23;103154.35;105141;1293;59880;-81
2023/02/06 05:18:26;;;;;;;;;;;;;;;-2.55;81.29;103146.95;105146;1294;73403;-81
2023/02/06 05:21:13;;;;;;;;;;;;;;;-2.58;81.21;103155.20;105205;1292;69070;-81
2023/02/06 05:24:00;;;;;;;;;;;;;;;-2.58;81.25;103154.54;105069;1291;71228;-81
2023/02/06 05:26:46;;;;;;;;;;;;;;;-2.58;81.25;103157.94;105023;1294;60430;-81
2023/02/06 05:29:32;;;;;;;;;;;;;;;-2.56;81.26;103163.12;105203;1295;60439;-81
2023/02/06 05:32:19;;;;;;;;;;;;;;;-2.56;81.26;103162.81;105219;1293;72571;-81
2023/02/06 05:35:05;;;;;;;;;;;;;;;-2.55;81.30;103162.69;105039;1293;67615;-81
2023/02/06 05:37:51;;;;;;;;;;;;;;;-2.55;81.28;103162.02;105116;1294;71390;-82
2023/02/06 05:40:37;;;;;;;;;;;;;;;-2.58;81.29;103164.16;104936;1292;60404;-81
2023/02/06 05:43:23;;;;;;;;;;;;;;;-2.60;81.22;103166.19;105005;1291;60140;-81
2023/02/06 05:46:11;;;;;;;;;;;;;;;-2.59;81.36;103174.88;105151;1294;75228;-81
2023/02/06 05:48:57;;;;;;;;;;;;;;;-2.57;81.34;103182.95;105063;1297;67377;-81
2023/02/06 05:51:43;;;;;;;;;;;;;;;-2.55;81.30;103185.79;105085;1296;72326;-81
2023/02/06 05:54:29;;;;;;;;;;;;;;;-2.57;81.27;103190.53;104921;1292;59047;-81
2023/02/06 05:57:15;;;;;;;;;;;;;;;-2.59;81.27;103189.39;105118;1294;60477;-81
2023/02/06 06:00:03;;;;;;;;;;;;;;;-2.59;81.24;103185.37;105061;1294;75155;-81
2023/02/06 06:02:49;;;;;;;;;;;;;;;-2.58;81.34;103186.58;104995;1294;67486;-81
2023/02/06 06:05:35;;;;;;;;;;;;;;;-2.59;81.31;103185.72;105030;1294;72492;-81
2023/02/06 06:08:21;;;;;;;;;;;;;;;-2.58;81.33;103184.08;105036;1294;60286;-81
2023/02/06 06:11:08;;;;;;;;;;;;;;;-2.56;81.34;103189.11;105012;1293;59523;-81
2023/02/06 06:13:54;;;;;;;;;;;;;;;-2.55;81.34;103199.87;105097;1294;72675;-81
2023/02/06 06:16:40;;;;;;;;;;;;;;;-2.53;81.39;103199.67;104636;1294;68675;-81
2023/02/06 06:19:26;;;;;;;;;;;;;;;-2.52;81.29;103199.71;104685;1296;72368;-82
2023/02/06 06:22:12;;;;;;;;;;;;;;;-2.52;81.35;103201.91;104976;1293;63806;-81
2023/02/06 06:24:58;;;;;;;;;;;;;;;-2.52;81.33;103205.80;105094;1294;63043;-81
2023/02/06 06:27:45;;;;;;;;;;;;;;;-2.55;81.31;103208.95;105016;1293;76581;-81
2023/02/06 06:30:32;;;;;;;;;;;;;;;-2.58;81.26;103216.02;105072;1293;67378;-81
2023/02/06 06:33:17;;;;;;;;;;;;;;;-2.63;81.21;103221.89;105059;1295;71378;-81
2023/02/06 06:36:04;;;;;;;;;;;;;;;-2.66;81.30;103228.05;105099;1296;60514;-81
2023/02/06 06:38:50;;;;;;;;;;;;;;;-2.67;81.41;103228.98;104948;1292;60255;-82
2023/02/06 06:41:37;;;;;;;;;;;;;;;-2.65;81.44;103229.45;104937;1294;72392;-81
2023/02/06 06:44:23;;;;;;;;;;;;;;;-2.63;81.46;103235.19;105939;1292;68447;-81
2023/02/06 06:47:09;;;;;;;;;;;;;;;-2.59;81.41;103245.25;105912;1291;72525;-81
2023/02/06 06:49:55;;;;;;;;;;;;;;;-2.56;81.44;103247.05;105873;1292;58289;-81
2023/02/06 06:52:42;;;;;;;;;;;;;;;-2.54;81.51;103252.09;105814;1292;59441;-82
2023/02/06 06:55:27;;;;;;;;;;;;;;;-2.52;81.47;103245.22;105859;1293;73039;-82
2023/02/06 06:58:13;;;;;;;;;;;;;;;-2.49;81.38;103245.20;105919;1292;68458;-82
2023/02/06 07:00:59;;;;;;;;;;;;;;;-2.46;81.34;103254.44;105438;1292;71725;-83
2023/02/06 07:03:47;;;;;;;;;;;;;;;-2.42;81.47;103253.37;105033;1293;60453;-81
2023/02/06 07:06:33;;;;;;;;;;;;;;;-2.40;81.45;103257.46;105010;1292;59287;-81
2023/02/06 07:09:19;;;;;;;;;;;;;;;-2.38;81.48;103260.67;105149;1293;72514;-82
2023/02/06 07:12:05;;;;;;;;;;;;;;;-2.35;81.53;103261.88;105054;1294;67853;-81
2023/02/06 07:14:52;;;;;;;;;;;;;;;-2.34;81.47;103269.60;105064;1293;71405;-81
2023/02/06 07:17:38;;;;;;;;;;;;;;;-2.32;81.52;103269.23;105069;1294;60446;-81
2023/02/06 07:20:25;;;;;;;;;;;;;;;-2.30;81.55;103267.69;104954;1297;61050;-81
2023/02/06 07:23:11;;;;;;;;;;;;;;;-2.29;81.54;103271.14;105068;1296;72513;-81
2023/02/06 07:26:01;;;;;;;;;;;;;;;-2.27;81.59;103274.04;105094;1294;67344;-81
2023/02/06 07:28:48;;;;;;;;;;;;;;;-2.24;81.56;103277.59;105082;1293;73573;-81
2023/02/06 07:31:35;;;;;;;;;;;;;;;-2.21;81.67;103279.86;105093;1292;59543;-81
2023/02/06 07:34:21;;;;;;;;;;;;;;;-2.17;81.68;103277.53;105074;1293;60438;-81
2023/02/06 07:37:07;;;;;;;;;;;;;;;-2.14;81.65;103275.75;104939;1294;73477;-81
2023/02/06 07:39:53;;;;;;;;;;;;;;;-2.11;81.63;103271.45;104995;1292;67186;-81
2023/02/06 07:42:39;;;;;;;;;;;;;;;-2.06;81.68;103261.81;104939;1293;72851;-81
2023/02/06 07:45:25;;;;;;;;;;;;;;;-2.01;81.73;103257.95;104967;1292;59558;-81
2023/02/06 07:48:11;;;;;;;;;;;;;;;-1.95;81.77;103255.48;104960;1293;60466;-81
2023/02/06 07:51:02;;;;;;;;;;;;;;;-1.91;81.81;103251.28;105089;1292;71400;-81
2023/02/06 07:53:49;;;;;;;;;;;;;;;-1.87;81.76;103253.80;105103;1294;67348;-81
2023/02/06 07:56:35;;;;;;;;;;;;;;;-1.81;81.75;103250.34;105083;1297;74095;-81
2023/02/06 07:59:21;;;;;;;;;;;;;;;-1.77;81.81;103253.23;105026;1293;58832;-81
2023/02/06 08:02:10;;;;;;;;;;;;;;;-1.71;81.83;103254.56;105008;1293;59237;-81
2023/02/06 08:04:56;;;;;;;;;;;;;;;-1.65;81.82;103256.47;105119;1294;71929;-81
2023/02/06 08:07:42;;;;;;;;;;;;;;;-1.60;81.83;103261.23;105067;1293;67787;-81
2023/02/06 08:10:28;;;;;;;;;;;;;;;-1.56;81.82;103257.50;105005;1294;71240;-81
2023/02/06 08:13:15;;;;;;;;;;;;;;;-1.52;81.81;103258.48;105169;1291;59287;-81
2023/02/06 08:16:05;;;;;;;;;;;;;;;-1.48;81.86;103256.77;104964;1293;60291;-82
2023/02/06 08:18:51;;;;;;;;;;;;;;;-1.42;81.84;103253.51;105013;1293;72450;-81
2023/02/06 08:21:37;;;;;;;;;;;;;;;-1.36;81.89;103254.96;105084;1293;68561;-81
2023/02/06 08:24:23;;;;;;;;;;;;;;;-1.30;81.93;103256.58;104991;1292;71171;-81
2023/02/06 08:27:09;;;;;;;;;;;;;;;-1.24;81.91;103258.15;105106;1292;60491;-81
2023/02/06 08:29:58;;;;;;;;;;;;;;;-1.20;81.95;103261.72;105003;1294;58809;-81
2023/02/06 08:32:44;;;;;;;;;;;;;;;-1.14;81.90;103260.15;105016;1293;72480;-81
2023/02/06 08:35:30;;;;;;;;;;;;;;;-1.08;81.97;103251.64;105164;1291;68293;-81
2023/02/06 08:38:16;;;;;;;;;;;;;;;-1.03;81.83;103254.00;105037;1293;72425;-81
2023/02/06 08:41:03;;;;;;;;;;;;;;;-0.99;81.92;103262.56;104988;1293;60442;-81
2023/02/06 08:43:50;;;;;;;;;;;;;;;-0.96;81.85;103268.68;104940;1291;59638;-81
2023/02/06 08:46:37;;;;;;;;;;;;;;;-0.95;81.82;103276.20;105071;1291;73475;-81
2023/02/06 08:49:25;;;;;;;;;;;;;;;-0.93;81.82;103274.32;104931;1293;68997;-82
2023/02/06 08:52:11;;;;;;;;;;;;;;;-0.90;81.77;103279.85;105027;1291;72485;-81
2023/02/06 08:54:57;;;;;;;;;;;;;;;-0.85;81.90;103277.64;105051;1293;60199;-82
2023/02/06 08:57:43;;;;;;;;;;;;;;;-0.78;81.90;103281.59;105210;1292;60422;-82
2023/02/06 09:00:30;;;;;;;;;;;;;;;-0.70;81.87;103275.36;105017;1292;72474;-82
2023/02/06 09:03:15;;;;;;;;;;;;;;;-0.64;81.83;103272.88;105161;1291;69969;-82
2023/02/06 09:06:02;;;;;;;;;;;;;;;-0.56;81.96;103259.80;105108;1296;70108;-82
2023/02/06 09:08:48;;;;;;;;;;;;;;;-0.47;81.93;103261.11;105067;1292;60322;-82
2023/02/06 09:11:34;;;;;;;;;;;;;;;-0.38;81.85;103259.33;105198;1292;58664;-83
2023/02/06 09:14:20;;;;;;;;;;;;;;;-0.33;81.85;103258.71;105160;1291;72935;-82
2023/02/06 09:17:07;;;;;;;;;;;;;;;-0.30;81.75;103256.49;105108;1291;67795;-82
2023/02/06 09:19:52;;;;;;;;;;;;;;;-0.26;81.87;103264.98;105047;1294;72439;-83
2023/02/06 09:22:38;;;;;;;;;;;;;;;-0.20;81.84;103258.42;105115;1291;60430;-82
2023/02/06 09:25:24;;;;;;;;;;;;;;;-0.16;81.75;103251.41;105042;1291;59562;-82
2023/02/06 09:28:11;;;;;;;;;;;;;;;-0.11;81.85;103255.17;105118;1294;73101;-82
2023/02/06 09:30:57;;;;;;;;;;;;;;;-0.05;81.78;103256.28;105075;1297;67181;-82
2023/02/06 09:33:43;;;;;;;;;;;;;;;0.00;81.84;103260.69;105133;1293;71763;-82
2023/02/06 09:36:29;;;;;;;;;;;;;;;0.03;81.68;103265.94;105158;1293;60113;-82
2023/02/06 09:39:15;;;;;;;;;;;;;;;0.07;81.80;103268.39;105143;1291;59368;-82
2023/02/06 09:42:04;;;;;;;;;;;;;;;0.10;81.64;103277.23;105067;1291;73625;-82
2023/02/06 09:44:54;;;;;;;;;;;;;;;0.13;81.62;103280.18;105084;1293;67290;-81
2023/02/06 09:47:43;;;;;;;;;;;;;;;0.15;81.63;103278.61;105011;1294;71200;-81
2023/02/06 09:50:40;;;;;;;;;;;;;;;0.16;81.56;103283.95;105072;1294;60468;-81
2023/02/06 09:53:32;;;;;;;;;;;;;;;0.17;81.58;103286.79;105117;1297;58511;-82
2023/02/06 09:56:21;;;;;;;;;;;;;;;0.19;81.60;103289.77;105015;1292;72431;-81
2023/02/06 09:59:13;;;;;;;;;;;;;;;0.19;81.54;103296.91;105210;1294;67442;-81
2023/02/06 10:02:19;;;;;;;;;;;;;;;0.18;81.50;103306.30;105086;1293;71245;-81
2023/02/06 10:05:05;;;;;;;;;;;;;;;0.17;81.46;103302.23;105146;1292;60432;-81
2023/02/06 10:07:57;;;;;;;;;;;;;;;0.16;81.53;103295.20;105090;1292;60365;-81
2023/02/06 10:10:51;;;;;;;;;;;;;;;0.15;81.45;103292.08;105146;1291;73624;-81
2023/02/06 10:13:58;;;;;;;;;;;;;;;0.14;81.47;103290.93;105042;1291;68077;-81
2023/02/06 10:17:01;;;;;;;;;;;;;;;0.12;81.47;103286.22;105045;1293;71890;-77
2023/02/06 10:19:59;;;;;;;;;;;;;;;0.10;81.47;103283.53;104778;1292;59274;-77
2023/02/06 10:22:53;;;;;;;;;;;;;;;0.07;81.49;103278.59;105650;1294;59721;-77
2023/02/06 10:25:42;;;;;;;;;;;;;;;0.05;81.49;103272.50;105755;1291;72441;-77
2023/02/06 10:28:29;;;;;;;;;;;;;;;0.03;81.44;103271.02;105594;1292;67575;-77
2023/02/06 10:31:21;;;;;;;;;;;;;;;0.02;81.46;103274.52;105631;1293;72509;-77
2023/02/06 10:34:10;;;;;;;;;;;;;;;0.02;81.49;103275.21;105696;1293;58579;-77
2023/02/06 10:37:16;;;;;;;;;;;;;;;0.03;81.38;103277.11;105707;1293;58684;-77
2023/02/06 10:40:25;;;;;;;;;;;;;;;0.04;81.43;103280.09;105704;1293;72559;-77
2023/02/06 10:43:26;;;;;;;;;;;;;;;0.11;81.37;103270.38;105661;1293;67236;-77
2023/02/06 10:46:32;;;;;;;;;;;;;;;0.21;81.38;103261.57;105774;1293;73569;-77
2023/02/06 10:49:26;;;;;;;;;;;;;;;0.31;81.39;103262.80;105051;1300;58567;-77
2023/02/06 10:52:38;;;;;;;;;;;;;;;0.40;81.45;103263.70;105105;1299;59370;-77
2023/02/06 10:55:36;;;;;;;;;;;;;;;0.46;81.40;103263.15;104612;1306;73655;-77
2023/02/06 10:58:44;;;;;;;;;;;;;;;0.50;81.32;103255.80;104604;1306;67766;-78
2023/02/06 11:01:33;;;;;;;;;;;;;;;0.53;81.41;103248.98;104628;1306;72312;-78
2023/02/06 11:04:23;;;;;;;;;;;;;;;0.53;81.27;103254.75;104585;1305;59432;-78
2023/02/06 11:07:25;;;;;;;;;;;;;;;0.52;81.25;103250.80;104552;1305;60864;-77
2023/02/06 11:10:13;;;;;;;;;;;;;;;0.52;81.23;103248.08;104508;1305;74115;-77
2023/02/06 11:13:02;;;;;;;;;;;;;;;0.54;81.25;103243.42;104356;1306;67294;-77
2023/02/06 11:15:57;;;;;;;;;;;;;;;0.55;81.16;103235.20;104568;1305;72434;-77
2023/02/06 11:18:44;;;;;;;;;;;;;;;0.59;81.24;103234.42;104621;1305;58614;-77
2023/02/06 11:22:00;;;;;;;;;;;;;;;0.67;81.35;103234.63;104598;1306;58574;-77
2023/02/06 11:25:03;;;;;;;;;;;;;;;0.75;81.19;103228.02;104323;1309;72558;-77
2023/02/06 11:27:50;;;;;;;;;;;;;;;0.84;81.12;103222.22;104853;1305;68144;-77
2023/02/06 11:30:38;;;;;;;;;;;;;;;0.97;81.18;103225.41;100743;1305;5165923;-77
2023/02/06 11:33:28;;;;;;;;;;;;;;;1.11;81.19;103238.70;104953;1302;58910;-77
2023/02/06 11:36:23;;;;;;;;;;;;;;;1.28;81.29;103242.02;104979;1303;58616;-77
2023/02/06 11:39:41;;;;;;;;;;;;;;;1.42;81.01;103234.42;104892;1303;74748;-77
2023/02/06 11:42:28;;;;;;;;;;;;;;;1.55;81.01;103238.82;104590;1308;68675;-77
2023/02/06 11:45:26;;;;;;;;;;;;;;;1.63;80.92;103231.34;104522;1308;71410;-77
2023/02/06 11:48:32;;;;;;;;;;;;;;;1.73;80.89;103229.88;104607;1306;58861;-77
2023/02/06 11:51:19;;;;;;;;;;;;;;;1.75;80.77;103229.66;104523;1309;58667;-77
2023/02/06 11:54:05;;;;;;;;;;;;;;;1.71;80.78;103232.27;104306;1307;72610;-77
2023/02/06 11:56:55;;;;;;;;;;;;;;;1.65;80.88;103231.77;104443;1307;67607;-77
2023/02/06 11:59:49;;;;;;;;;;;;;;;1.60;80.83;103231.26;104478;1307;71785;-77
2023/02/06 12:02:37;;;;;;;;;;;;;;;1.57;80.84;103233.45;105037;1299;58705;-77
2023/02/06 12:05:26;;;;;;;;;;;;;;;1.51;80.82;103234.33;105034;1300;60504;-77
2023/02/06 12:08:16;;;;;;;;;;;;;;;1.46;80.77;103233.13;105008;1300;73914;-76
2023/02/06 12:11:03;;;;;;;;;;;;;;;1.42;80.78;103233.58;105161;1300;67179;-76
2023/02/06 12:13:53;;;;;;;;;;;;;;;1.46;80.49;103239.25;105074;1300;73824;-76
2023/02/06 12:16:40;;;;;;;;;;;;;;;1.48;80.43;103241.77;105066;1300;58493;-76
2023/02/06 12:19:32;;;;;;;;;;;;;;;1.50;80.64;103241.90;105476;1294;60812;-76
2023/02/06 12:22:23;;;;;;;;;;;;;;;1.51;80.65;103245.88;105588;1294;73548;-76
2023/02/06 12:25:21;;;;;;;;;;;;;;;1.54;80.69;103239.93;105625;1294;67363;-76
2023/02/06 12:28:10;;;;;;;;;;;;;;;1.58;80.68;103241.02;105601;1294;71229;-76
2023/02/06 12:30:57;;;;;;;;;;;;;;;1.64;80.55;103238.32;105520;1294;58759;-76
2023/02/06 12:34:13;;;;;;;;;;;;;;;1.63;80.34;103239.66;105474;1299;58754;-77
2023/02/06 12:37:14;;;;;;;;;;;;;;;1.67;80.54;103240.58;104977;1300;72869;-77
2023/02/06 12:40:01;;;;;;;;;;;;;;;1.74;80.58;103240.30;104989;1299;67365;-77
2023/02/06 12:42:52;;;;;;;;;;;;;;;1.76;80.55;103243.49;105039;1299;71423;-77
2023/02/06 12:46:04;;;;;;;;;;;;;;;1.76;80.37;103242.98;105124;1299;58179;-77
2023/02/06 12:49:11;;;;;;;;;;;;;;;1.73;80.32;103238.17;105251;1300;58558;-77
2023/02/06 12:52:03;;;;;;;;;;;;;;;1.71;80.33;103239.64;104589;1305;72580;-77
2023/02/06 12:54:58;;;;;;;;;;;;;;;1.69;80.30;103240.85;104528;1305;68438;-77
2023/02/06 12:57:44;;;;;;;;;;;;;;;1.67;79.97;103240.74;104526;1305;71459;-77
2023/02/06 13:01:02;;;;;;;;;;;;;;;1.66;80.18;103242.57;104553;1305;58021;-77
2023/02/06 13:03:51;;;;;;;;;;;;;;;1.64;79.80;103243.96;103927;1316;59754;-77
2023/02/06 13:06:47;;;;;;;;;;;;;;;1.59;79.80;103243.46;103905;1311;72830;-77
2023/02/06 13:09:45;;;;;;;;;;;;;;;1.52;79.73;103243.38;103984;1311;68046;-77
2023/02/06 13:12:32;;;;;;;;;;;;;;;1.47;79.72;103237.63;104032;1312;71314;-77
2023/02/06 13:15:20;;;;;;;;;;;;;;;1.50;79.86;103234.58;104304;1308;58324;-77
2023/02/06 13:18:24;;;;;;;;;;;;;;;1.55;79.96;103236.45;104291;1308;59681;-77
2023/02/06 13:21:19;;;;;;;;;;;;;;;1.58;79.90;103232.52;104308;1311;74731;-77
2023/02/06 13:24:12;;;;;;;;;;;;;;;1.62;79.85;103233.41;104199;1308;68097;-77
2023/02/06 13:27:08;;;;;;;;;;;;;;;1.62;79.64;103227.34;104278;1308;73297;-77
2023/02/06 13:29:54;;;;;;;;;;;;;;;1.60;79.65;103228.35;104698;1305;58822;-76
2023/02/06 13:32:42;;;;;;;;;;;;;;;1.59;79.69;103227.79;104967;1302;58835;-77
2023/02/06 13:35:29;;;;;;;;;;;;;;;1.55;79.48;103222.27;104909;1302;73580;-76
2023/02/06 13:38:21;;;;;;;;;;;;;;;1.47;79.47;103225.55;105056;1302;68615;-76
2023/02/06 13:41:33;;;;;;;;;;;;;;;1.37;79.17;103231.20;105716;1294;71980;-76
2023/02/06 13:44:25;;;;;;;;;;;;;;;1.30;79.37;103232.98;105137;1299;58189;-76
2023/02/06 13:47:23;;;;;;;;;;;;;;;1.27;79.48;103236.88;105098;1304;59247;-76
2023/02/06 13:50:28;;;;;;;;;;;;;;;1.24;79.37;103234.64;105204;1298;72650;-76
2023/02/06 13:53:32;;;;;;;;;;;;;;;1.19;79.40;103236.69;105092;1299;66302;-76
2023/02/06 13:56:30;;;;;;;;;;;;;;;1.15;79.36;103243.70;105141;1299;71326;-76
2023/02/06 13:59:23;;;;;;;;;;;;;;;1.12;79.38;103247.55;105176;1299;58724;-76
2023/02/06 14:02:21;;;;;;;;;;;;;;;1.07;79.22;103248.30;105141;1299;59930;-77
2023/02/06 14:05:13;;;;;;;;;;;;;;;1.03;79.24;103239.90;105145;1299;73785;-77
2023/02/06 14:08:23;;;;;;;;;;;;;;;1.01;79.24;103239.59;105084;1299;68757;-77
2023/02/06 14:11:09;;;;;;;;;;;;;;;0.97;79.07;103244.80;105224;1300;72591;-77
2023/02/06 14:14:15;;;;;;;;;;;;;;;0.95;79.05;103252.09;105149;1299;58565;-77
2023/02/06 14:17:15;;;;;;;;;;;;;;;0.92;79.17;103258.90;105207;1300;59384;-77
2023/02/06 14:20:21;;;;;;;;;;;;;;;0.89;79.17;103261.06;105269;1299;73767;-77
2023/02/06 14:23:42;;;;;;;;;;;;;;;0.86;79.10;103264.42;105176;1299;67865;-77
2023/02/06 14:26:51;;;;;;;;;;;;;;;0.83;78.94;103275.42;104558;1309;72138;-77